sensor_id;sensor_type;location;lat;lon;timestamp;temperature;humidity
17307;DHT22;8771;48.048;7.682;2022-08-19T00:02:12;21.70;62.90
17307;DHT22;8771;48.048;7.682;2022-08-19T00:07:15;21.70;62.90
17307;DHT22;8771;48.048;7.682;2022-08-19T00:12:17;21.70;62.90
17307;DHT22;8771;48.048;7.682;2022-08-19T00:17:19;21.70;63.00
17307;DHT22;8771;48.048;7.682;2022-08-19T00:22:23;21.70;63.10
17307;DHT22;8771;48.048;7.682;2022-08-19T00:27:27;21.70;63.10
17307;DHT22;8771;48.048;7.682;2022-08-19T00:32:29;21.70;63.10
17307;DHT22;8771;48.048;7.682;2022-08-19T00:37:33;21.60;63.10
17307;DHT22;8771;48.048;7.682;2022-08-19T00:42:35;21.70;63.20
17307;DHT22;8771;48.048;7.682;2022-08-19T00:47:38;21.60;63.10
17307;DHT22;8771;48.048;7.682;2022-08-19T00:52:44;21.60;63.20
17307;DHT22;8771;48.048;7.682;2022-08-19T00:57:49;21.60;63.20
17307;DHT22;8771;48.048;7.682;2022-08-19T01:02:53;21.60;63.20
17307;DHT22;8771;48.048;7.682;2022-08-19T01:07:59;21.60;63.30
17307;DHT22;8771;48.048;7.682;2022-08-19T01:13:03;21.50;63.20
17307;DHT22;8771;48.048;7.682;2022-08-19T01:18:09;21.50;63.30
17307;DHT22;8771;48.048;7.682;2022-08-19T01:23:14;21.50;63.40
17307;DHT22;8771;48.048;7.682;2022-08-19T01:28:17;21.50;63.50
17307;DHT22;8771;48.048;7.682;2022-08-19T01:33:20;21.40;63.40
17307;DHT22;8771;48.048;7.682;2022-08-19T01:38:26;21.40;63.50
17307;DHT22;8771;48.048;7.682;2022-08-19T01:43:32;21.40;63.50
17307;DHT22;8771;48.048;7.682;2022-08-19T01:48:36;21.40;63.50
17307;DHT22;8771;48.048;7.682;2022-08-19T01:53:40;21.40;63.50
17307;DHT22;8771;48.048;7.682;2022-08-19T01:58:46;21.40;63.50
17307;DHT22;8771;48.048;7.682;2022-08-19T02:03:51;21.50;63.60
17307;DHT22;8771;48.048;7.682;2022-08-19T02:08:56;21.50;63.60
17307;DHT22;8771;48.048;7.682;2022-08-19T02:13:59;21.50;63.70
17307;DHT22;8771;48.048;7.682;2022-08-19T02:19:03;21.40;63.60
17307;DHT22;8771;48.048;7.682;2022-08-19T02:24:07;21.40;63.60
17307;DHT22;8771;48.048;7.682;2022-08-19T02:29:09;21.40;63.70
17307;DHT22;8771;48.048;7.682;2022-08-19T02:34:11;21.40;63.70
17307;DHT22;8771;48.048;7.682;2022-08-19T02:39:14;21.40;63.80
17307;DHT22;8771;48.048;7.682;2022-08-19T02:44:16;21.40;63.80
17307;DHT22;8771;48.048;7.682;2022-08-19T02:49:19;21.40;64.00
17307;DHT22;8771;48.048;7.682;2022-08-19T02:54:22;21.30;64.00
17307;DHT22;8771;48.048;7.682;2022-08-19T02:59:24;21.30;64.00
17307;DHT22;8771;48.048;7.682;2022-08-19T03:04:27;21.30;64.10
17307;DHT22;8771;48.048;7.682;2022-08-19T03:09:31;21.30;64.10
17307;DHT22;8771;48.048;7.682;2022-08-19T03:14:34;21.30;64.10
17307;DHT22;8771;48.048;7.682;2022-08-19T03:19:36;21.20;64.10
17307;DHT22;8771;48.048;7.682;2022-08-19T03:24:40;21.20;64.10
17307;DHT22;8771;48.048;7.682;2022-08-19T03:29:42;21.20;64.10
17307;DHT22;8771;48.048;7.682;2022-08-19T03:34:44;21.20;64.20
17307;DHT22;8771;48.048;7.682;2022-08-19T03:39:47;21.20;64.20
17307;DHT22;8771;48.048;7.682;2022-08-19T03:44:49;21.20;64.30
17307;DHT22;8771;48.048;7.682;2022-08-19T03:49:51;21.20;64.30
17307;DHT22;8771;48.048;7.682;2022-08-19T03:54:54;21.10;64.30
17307;DHT22;8771;48.048;7.682;2022-08-19T03:59:56;21.10;64.30
17307;DHT22;8771;48.048;7.682;2022-08-19T04:04:58;21.10;64.30
17307;DHT22;8771;48.048;7.682;2022-08-19T04:10:02;21.10;64.30
17307;DHT22;8771;48.048;7.682;2022-08-19T04:15:05;21.10;64.40
17307;DHT22;8771;48.048;7.682;2022-08-19T04:20:09;21.10;64.40
17307;DHT22;8771;48.048;7.682;2022-08-19T04:25:12;21.10;64.40
17307;DHT22;8771;48.048;7.682;2022-08-19T04:30:15;21.00;64.40
17307;DHT22;8771;48.048;7.682;2022-08-19T04:35:18;21.00;64.40
17307;DHT22;8771;48.048;7.682;2022-08-19T04:40:22;21.00;64.50
17307;DHT22;8771;48.048;7.682;2022-08-19T04:45:41;21.00;64.50
17307;DHT22;8771;48.048;7.682;2022-08-19T04:50:44;21.00;64.50
17307;DHT22;8771;48.048;7.682;2022-08-19T04:55:47;21.00;64.50
17307;DHT22;8771;48.048;7.682;2022-08-19T05:00:49;21.00;64.50
17307;DHT22;8771;48.048;7.682;2022-08-19T05:05:51;21.00;64.50
17307;DHT22;8771;48.048;7.682;2022-08-19T05:10:55;21.00;64.50
17307;DHT22;8771;48.048;7.682;2022-08-19T05:15:58;21.10;64.60
17307;DHT22;8771;48.048;7.682;2022-08-19T05:21:06;21.10;64.50
17307;DHT22;8771;48.048;7.682;2022-08-19T05:26:27;21.10;64.50
17307;DHT22;8771;48.048;7.682;2022-08-19T05:31:29;21.10;64.50
17307;DHT22;8771;48.048;7.682;2022-08-19T05:36:35;21.20;64.50
17307;DHT22;8771;48.048;7.682;2022-08-19T05:41:42;21.20;64.40
17307;DHT22;8771;48.048;7.682;2022-08-19T05:46:44;21.20;64.40
17307;DHT22;8771;48.048;7.682;2022-08-19T05:51:47;21.30;64.40
17307;DHT22;8771;48.048;7.682;2022-08-19T05:56:52;21.30;64.50
17307;DHT22;8771;48.048;7.682;2022-08-19T06:01:54;21.30;64.40
17307;DHT22;8771;48.048;7.682;2022-08-19T06:06:57;21.30;64.30
17307;DHT22;8771;48.048;7.682;2022-08-19T06:12:01;21.40;65.20
17307;DHT22;8771;48.048;7.682;2022-08-19T06:17:03;21.40;64.40
17307;DHT22;8771;48.048;7.682;2022-08-19T06:22:05;21.40;64.40
17307;DHT22;8771;48.048;7.682;2022-08-19T06:27:09;21.50;64.40
17307;DHT22;8771;48.048;7.682;2022-08-19T06:32:11;21.50;64.50
17307;DHT22;8771;48.048;7.682;2022-08-19T06:37:14;21.50;64.40
17307;DHT22;8771;48.048;7.682;2022-08-19T06:42:17;21.50;64.50
17307;DHT22;8771;48.048;7.682;2022-08-19T06:47:21;21.50;64.50
17307;DHT22;8771;48.048;7.682;2022-08-19T06:52:23;21.60;64.60
17307;DHT22;8771;48.048;7.682;2022-08-19T06:57:27;21.60;64.50
17307;DHT22;8771;48.048;7.682;2022-08-19T07:02:33;21.60;64.40
17307;DHT22;8771;48.048;7.682;2022-08-19T07:07:38;21.70;64.40
17307;DHT22;8771;48.048;7.682;2022-08-19T07:12:41;21.70;64.30
17307;DHT22;8771;48.048;7.682;2022-08-19T07:17:43;21.80;64.30
17307;DHT22;8771;48.048;7.682;2022-08-19T07:22:45;21.80;64.30
17307;DHT22;8771;48.048;7.682;2022-08-19T07:27:50;21.80;64.30
17307;DHT22;8771;48.048;7.682;2022-08-19T07:32:52;22.00;64.30
17307;DHT22;8771;48.048;7.682;2022-08-19T07:37:54;22.00;64.10
17307;DHT22;8771;48.048;7.682;2022-08-19T07:42:57;22.20;64.10
17307;DHT22;8771;48.048;7.682;2022-08-19T07:47:59;22.30;63.90
17307;DHT22;8771;48.048;7.682;2022-08-19T07:53:01;22.50;63.80
17307;DHT22;8771;48.048;7.682;2022-08-19T07:58:05;22.60;63.60
17307;DHT22;8771;48.048;7.682;2022-08-19T08:03:07;22.70;63.50
17307;DHT22;8771;48.048;7.682;2022-08-19T08:08:10;22.90;63.30
17307;DHT22;8771;48.048;7.682;2022-08-19T08:13:39;23.00;63.30
17307;DHT22;8771;48.048;7.682;2022-08-19T08:18:41;23.10;63.20
17307;DHT22;8771;48.048;7.682;2022-08-19T08:23:44;23.20;63.10
17307;DHT22;8771;48.048;7.682;2022-08-19T08:28:47;23.20;63.10
17307;DHT22;8771;48.048;7.682;2022-08-19T08:33:49;23.30;63.10
17307;DHT22;8771;48.048;7.682;2022-08-19T08:38:51;23.30;63.10
17307;DHT22;8771;48.048;7.682;2022-08-19T08:43:56;23.40;63.10
17307;DHT22;8771;48.048;7.682;2022-08-19T08:49:04;23.40;63.10
17307;DHT22;8771;48.048;7.682;2022-08-19T08:54:12;23.40;63.20
17307;DHT22;8771;48.048;7.682;2022-08-19T08:59:20;23.40;63.20
17307;DHT22;8771;48.048;7.682;2022-08-19T09:04:23;23.50;63.40
17307;DHT22;8771;48.048;7.682;2022-08-19T09:09:28;23.50;63.20
17307;DHT22;8771;48.048;7.682;2022-08-19T09:14:37;23.70;63.20
17307;DHT22;8771;48.048;7.682;2022-08-19T09:19:54;23.80;63.00
17307;DHT22;8771;48.048;7.682;2022-08-19T09:24:56;23.90;62.80
17307;DHT22;8771;48.048;7.682;2022-08-19T09:30:00;24.10;62.70
17307;DHT22;8771;48.048;7.682;2022-08-19T09:35:02;24.20;62.50
17307;DHT22;8771;48.048;7.682;2022-08-19T09:40:05;24.30;62.50
17307;DHT22;8771;48.048;7.682;2022-08-19T09:45:10;24.40;62.50
17307;DHT22;8771;48.048;7.682;2022-08-19T09:50:12;24.40;62.50
17307;DHT22;8771;48.048;7.682;2022-08-19T09:55:15;24.40;62.40
17307;DHT22;8771;48.048;7.682;2022-08-19T10:00:19;24.40;62.40
17307;DHT22;8771;48.048;7.682;2022-08-19T10:05:22;24.50;62.50
17307;DHT22;8771;48.048;7.682;2022-08-19T10:10:41;24.50;62.50
17307;DHT22;8771;48.048;7.682;2022-08-19T10:15:46;24.50;62.60
17307;DHT22;8771;48.048;7.682;2022-08-19T10:20:51;24.50;62.60
17307;DHT22;8771;48.048;7.682;2022-08-19T10:25:59;24.60;62.50
17307;DHT22;8771;48.048;7.682;2022-08-19T10:31:05;24.60;62.50
17307;DHT22;8771;48.048;7.682;2022-08-19T10:36:10;24.70;62.40
17307;DHT22;8771;48.048;7.682;2022-08-19T10:41:13;24.90;62.20
17307;DHT22;8771;48.048;7.682;2022-08-19T10:46:18;25.00;61.90
17307;DHT22;8771;48.048;7.682;2022-08-19T10:51:20;25.20;61.80
17307;DHT22;8771;48.048;7.682;2022-08-19T10:56:36;25.30;61.60
17307;DHT22;8771;48.048;7.682;2022-08-19T11:02:00;25.40;61.50
17307;DHT22;8771;48.048;7.682;2022-08-19T11:07:03;25.50;61.50
17307;DHT22;8771;48.048;7.682;2022-08-19T11:12:06;25.50;61.40
17307;DHT22;8771;48.048;7.682;2022-08-19T11:17:10;25.60;61.50
17307;DHT22;8771;48.048;7.682;2022-08-19T11:22:14;25.60;61.50
17307;DHT22;8771;48.048;7.682;2022-08-19T11:27:19;25.70;61.50
17307;DHT22;8771;48.048;7.682;2022-08-19T11:32:22;25.80;61.40
17307;DHT22;8771;48.048;7.682;2022-08-19T11:37:27;25.90;61.20
17307;DHT22;8771;48.048;7.682;2022-08-19T11:42:29;26.00;61.20
17307;DHT22;8771;48.048;7.682;2022-08-19T11:47:49;26.10;60.90
17307;DHT22;8771;48.048;7.682;2022-08-19T11:52:54;26.30;60.80
17307;DHT22;8771;48.048;7.682;2022-08-19T11:57:57;26.40;60.60
17307;DHT22;8771;48.048;7.682;2022-08-19T12:03:00;26.60;60.50
17307;DHT22;8771;48.048;7.682;2022-08-19T12:08:02;26.70;60.40
17307;DHT22;8771;48.048;7.682;2022-08-19T12:13:05;26.80;60.20
17307;DHT22;8771;48.048;7.682;2022-08-19T12:18:09;27.00;60.10
17307;DHT22;8771;48.048;7.682;2022-08-19T12:23:11;27.00;60.10
17307;DHT22;8771;48.048;7.682;2022-08-19T12:28:13;27.10;60.20
17307;DHT22;8771;48.048;7.682;2022-08-19T12:33:17;27.20;60.10
17307;DHT22;8771;48.048;7.682;2022-08-19T12:38:20;27.10;60.90
17307;DHT22;8771;48.048;7.682;2022-08-19T12:43:24;27.00;60.30
17307;DHT22;8771;48.048;7.682;2022-08-19T12:48:28;27.20;60.20
17307;DHT22;8771;48.048;7.682;2022-08-19T12:53:30;27.40;60.00
17307;DHT22;8771;48.048;7.682;2022-08-19T12:58:32;27.40;59.80
17307;DHT22;8771;48.048;7.682;2022-08-19T13:03:36;27.40;59.90
17307;DHT22;8771;48.048;7.682;2022-08-19T13:08:38;27.30;60.00
17307;DHT22;8771;48.048;7.682;2022-08-19T13:13:42;27.20;60.10
17307;DHT22;8771;48.048;7.682;2022-08-19T13:18:46;27.30;60.10
17307;DHT22;8771;48.048;7.682;2022-08-19T13:23:49;27.50;59.90
17307;DHT22;8771;48.048;7.682;2022-08-19T13:28:53;27.60;59.70
17307;DHT22;8771;48.048;7.682;2022-08-19T13:34:15;27.90;59.50
17307;DHT22;8771;48.048;7.682;2022-08-19T13:39:17;28.20;59.20
17307;DHT22;8771;48.048;7.682;2022-08-19T13:44:19;28.50;58.90
17307;DHT22;8771;48.048;7.682;2022-08-19T13:49:23;28.70;58.70
17307;DHT22;8771;48.048;7.682;2022-08-19T13:54:25;28.90;58.50
17307;DHT22;8771;48.048;7.682;2022-08-19T13:59:28;29.00;58.40
17307;DHT22;8771;48.048;7.682;2022-08-19T14:04:31;29.00;58.50
17307;DHT22;8771;48.048;7.682;2022-08-19T14:09:33;29.00;58.50
17307;DHT22;8771;48.048;7.682;2022-08-19T14:14:36;28.80;58.70
17307;DHT22;8771;48.048;7.682;2022-08-19T14:19:40;28.60;59.20
17307;DHT22;8771;48.048;7.682;2022-08-19T14:24:42;28.30;59.50
17307;DHT22;8771;48.048;7.682;2022-08-19T14:29:44;28.00;59.80
17307;DHT22;8771;48.048;7.682;2022-08-19T14:34:47;27.80;60.10
17307;DHT22;8771;48.048;7.682;2022-08-19T14:39:49;27.60;60.40
17307;DHT22;8771;48.048;7.682;2022-08-19T14:44:51;27.50;60.80
17307;DHT22;8771;48.048;7.682;2022-08-19T14:49:57;27.30;60.70
17307;DHT22;8771;48.048;7.682;2022-08-19T14:55:00;27.30;60.70
17307;DHT22;8771;48.048;7.682;2022-08-19T15:00:04;27.20;60.80
17307;DHT22;8771;48.048;7.682;2022-08-19T15:05:08;27.10;60.80
17307;DHT22;8771;48.048;7.682;2022-08-19T15:10:14;27.10;60.80
17307;DHT22;8771;48.048;7.682;2022-08-19T15:15:16;27.00;60.70
17307;DHT22;8771;48.048;7.682;2022-08-19T15:20:20;27.00;60.70
17307;DHT22;8771;48.048;7.682;2022-08-19T15:25:23;26.90;60.60
17307;DHT22;8771;48.048;7.682;2022-08-19T15:30:26;27.00;60.50
17307;DHT22;8771;48.048;7.682;2022-08-19T15:35:31;27.10;60.40
17307;DHT22;8771;48.048;7.682;2022-08-19T15:40:33;27.10;60.20
17307;DHT22;8771;48.048;7.682;2022-08-19T15:45:35;27.10;60.10
17307;DHT22;8771;48.048;7.682;2022-08-19T15:50:39;27.10;60.00
17307;DHT22;8771;48.048;7.682;2022-08-19T15:55:44;27.10;60.00
17307;DHT22;8771;48.048;7.682;2022-08-19T16:00:48;27.10;59.90
17307;DHT22;8771;48.048;7.682;2022-08-19T16:06:10;27.10;59.90
17307;DHT22;8771;48.048;7.682;2022-08-19T16:11:29;27.10;59.90
17307;DHT22;8771;48.048;7.682;2022-08-19T16:16:35;27.10;59.80
17307;DHT22;8771;48.048;7.682;2022-08-19T16:21:39;27.20;59.70
17307;DHT22;8771;48.048;7.682;2022-08-19T16:26:42;27.30;59.60
17307;DHT22;8771;48.048;7.682;2022-08-19T16:31:45;27.30;59.50
17307;DHT22;8771;48.048;7.682;2022-08-19T16:36:48;27.30;59.50
17307;DHT22;8771;48.048;7.682;2022-08-19T16:41:50;27.30;59.50
17307;DHT22;8771;48.048;7.682;2022-08-19T16:46:53;27.40;59.60
17307;DHT22;8771;48.048;7.682;2022-08-19T16:51:56;27.40;59.50
17307;DHT22;8771;48.048;7.682;2022-08-19T16:56:58;27.40;59.50
17307;DHT22;8771;48.048;7.682;2022-08-19T17:02:01;27.30;59.50
17307;DHT22;8771;48.048;7.682;2022-08-19T17:07:04;27.30;59.60
17307;DHT22;8771;48.048;7.682;2022-08-19T17:12:07;27.20;59.70
17307;DHT22;8771;48.048;7.682;2022-08-19T17:17:09;27.10;59.80
17307;DHT22;8771;48.048;7.682;2022-08-19T17:22:13;27.00;59.80
17307;DHT22;8771;48.048;7.682;2022-08-19T17:27:15;26.80;59.90
17307;DHT22;8771;48.048;7.682;2022-08-19T17:32:19;26.80;60.10
17307;DHT22;8771;48.048;7.682;2022-08-19T17:37:22;26.70;60.20
17307;DHT22;8771;48.048;7.682;2022-08-19T17:42:25;26.60;60.20
17307;DHT22;8771;48.048;7.682;2022-08-19T17:47:29;26.60;60.30
17307;DHT22;8771;48.048;7.682;2022-08-19T17:52:33;26.40;60.30
17307;DHT22;8771;48.048;7.682;2022-08-19T17:57:36;26.40;60.40
17307;DHT22;8771;48.048;7.682;2022-08-19T18:02:46;26.30;60.50
17307;DHT22;8771;48.048;7.682;2022-08-19T18:07:52;26.10;60.60
17307;DHT22;8771;48.048;7.682;2022-08-19T18:12:54;25.90;60.80
17307;DHT22;8771;48.048;7.682;2022-08-19T18:17:56;25.80;60.90
17307;DHT22;8771;48.048;7.682;2022-08-19T18:23:00;25.60;61.10
17307;DHT22;8771;48.048;7.682;2022-08-19T18:28:02;25.50;61.20
17307;DHT22;8771;48.048;7.682;2022-08-19T18:33:06;25.30;61.40
17307;DHT22;8771;48.048;7.682;2022-08-19T18:38:17;25.10;61.50
17307;DHT22;8771;48.048;7.682;2022-08-19T18:43:37;25.00;61.60
17307;DHT22;8771;48.048;7.682;2022-08-19T18:48:57;24.90;62.70
17307;DHT22;8771;48.048;7.682;2022-08-19T18:54:06;24.70;62.00
17307;DHT22;8771;48.048;7.682;2022-08-19T18:59:08;24.50;62.20
17307;DHT22;8771;48.048;7.682;2022-08-19T19:04:10;24.30;62.40
17307;DHT22;8771;48.048;7.682;2022-08-19T19:09:19;24.20;62.50
17307;DHT22;8771;48.048;7.682;2022-08-19T19:14:27;24.10;62.70
17307;DHT22;8771;48.048;7.682;2022-08-19T19:19:33;24.00;62.60
17307;DHT22;8771;48.048;7.682;2022-08-19T19:24:37;23.90;62.60
17307;DHT22;8771;48.048;7.682;2022-08-19T19:29:40;23.80;62.80
17307;DHT22;8771;48.048;7.682;2022-08-19T19:34:43;23.70;62.80
17307;DHT22;8771;48.048;7.682;2022-08-19T19:39:47;23.60;62.90
17307;DHT22;8771;48.048;7.682;2022-08-19T19:44:50;23.50;62.90
17307;DHT22;8771;48.048;7.682;2022-08-19T19:49:54;23.40;63.10
17307;DHT22;8771;48.048;7.682;2022-08-19T19:54:58;23.30;63.10
17307;DHT22;8771;48.048;7.682;2022-08-19T20:00:01;23.20;63.00
17307;DHT22;8771;48.048;7.682;2022-08-19T20:05:04;23.10;63.10
17307;DHT22;8771;48.048;7.682;2022-08-19T20:10:07;23.00;63.20
17307;DHT22;8771;48.048;7.682;2022-08-19T20:15:09;23.00;63.20
17307;DHT22;8771;48.048;7.682;2022-08-19T20:20:14;23.00;63.20
17307;DHT22;8771;48.048;7.682;2022-08-19T20:25:18;22.90;63.20
17307;DHT22;8771;48.048;7.682;2022-08-19T20:30:21;22.80;63.20
17307;DHT22;8771;48.048;7.682;2022-08-19T20:35:23;22.70;63.20
17307;DHT22;8771;48.048;7.682;2022-08-19T20:40:29;22.60;63.30
17307;DHT22;8771;48.048;7.682;2022-08-19T20:45:32;22.60;63.50
17307;DHT22;8771;48.048;7.682;2022-08-19T20:50:36;22.50;63.50
17307;DHT22;8771;48.048;7.682;2022-08-19T20:55:42;22.40;63.50
17307;DHT22;8771;48.048;7.682;2022-08-19T21:00:46;22.30;63.50
17307;DHT22;8771;48.048;7.682;2022-08-19T21:05:48;22.30;63.50
17307;DHT22;8771;48.048;7.682;2022-08-19T21:10:52;22.20;63.50
17307;DHT22;8771;48.048;7.682;2022-08-19T21:15:55;22.10;63.50
17307;DHT22;8771;48.048;7.682;2022-08-19T21:20:57;22.00;63.60
17307;DHT22;8771;48.048;7.682;2022-08-19T21:26:00;22.00;63.80
17307;DHT22;8771;48.048;7.682;2022-08-19T21:31:04;21.90;63.80
17307;DHT22;8771;48.048;7.682;2022-08-19T21:36:06;21.80;63.80
17307;DHT22;8771;48.048;7.682;2022-08-19T21:41:10;21.80;63.80
17307;DHT22;8771;48.048;7.682;2022-08-19T21:46:12;21.70;64.00
17307;DHT22;8771;48.048;7.682;2022-08-19T21:51:14;21.60;64.00
17307;DHT22;8771;48.048;7.682;2022-08-19T21:56:18;21.60;64.00
17307;DHT22;8771;48.048;7.682;2022-08-19T22:01:20;21.50;64.00
17307;DHT22;8771;48.048;7.682;2022-08-19T22:06:22;21.40;64.10
17307;DHT22;8771;48.048;7.682;2022-08-19T22:11:27;21.40;64.10
17307;DHT22;8771;48.048;7.682;2022-08-19T22:16:29;21.30;64.10
17307;DHT22;8771;48.048;7.682;2022-08-19T22:21:32;21.20;64.20
17307;DHT22;8771;48.048;7.682;2022-08-19T22:26:35;21.20;64.40
17307;DHT22;8771;48.048;7.682;2022-08-19T22:31:37;21.10;64.50
17307;DHT22;8771;48.048;7.682;2022-08-19T22:36:39;21.00;64.50
17307;DHT22;8771;48.048;7.682;2022-08-19T22:41:43;20.90;64.70
17307;DHT22;8771;48.048;7.682;2022-08-19T22:46:45;20.80;64.70
17307;DHT22;8771;48.048;7.682;2022-08-19T22:51:49;20.70;64.90
17307;DHT22;8771;48.048;7.682;2022-08-19T22:57:10;20.60;64.90
17307;DHT22;8771;48.048;7.682;2022-08-19T23:02:16;20.60;65.00
17307;DHT22;8771;48.048;7.682;2022-08-19T23:07:20;20.50;65.00
17307;DHT22;8771;48.048;7.682;2022-08-19T23:12:30;20.50;65.00
17307;DHT22;8771;48.048;7.682;2022-08-19T23:17:32;20.50;65.00
17307;DHT22;8771;48.048;7.682;2022-08-19T23:22:36;20.40;65.10
17307;DHT22;8771;48.048;7.682;2022-08-19T23:27:39;20.40;65.00
17307;DHT22;8771;48.048;7.682;2022-08-19T23:33:02;20.40;65.00
17307;DHT22;8771;48.048;7.682;2022-08-19T23:38:07;20.30;65.00
17307;DHT22;8771;48.048;7.682;2022-08-19T23:43:11;20.30;65.10
17307;DHT22;8771;48.048;7.682;2022-08-19T23:48:14;20.30;65.10
17307;DHT22;8771;48.048;7.682;2022-08-19T23:53:16;20.20;65.20
17307;DHT22;8771;48.048;7.682;2022-08-19T23:58:21;20.10;65.10
